sensor_id;sensor_type;location;lat;lon;timestamp;pressure;altitude;pressure_sealevel;temperature;humidity
64025;BME280;50266;57.446;26.936;2023-04-05T00:00:43;99751.4;;;-1.4;100.0
64025;BME280;50266;57.446;26.936;2023-04-05T00:01:43;99749.69;;;-1.39;100.0
64025;BME280;50266;57.446;26.936;2023-04-05T00:02:43;99751.84;;;-1.36;100.0
64025;BME280;50266;57.446;26.936;2023-04-05T00:03:43;99752.14;;;-1.39;100.0
64025;BME280;50266;57.446;26.936;2023-04-05T00:04:43;99750.03;;;-1.39;100.0
64025;BME280;50266;57.446;26.936;2023-04-05T00:05:43;99749.44;;;-1.4;100.0
64025;BME280;50266;57.446;26.936;2023-04-05T00:06:43;99749.98;;;-1.4;100.0
64025;BME280;50266;57.446;26.936;2023-04-05T00:07:43;99755.91;;;-1.4;100.0
64025;BME280;50266;57.446;26.936;2023-04-05T00:08:43;99749.28;;;-1.4;100.0
64025;BME280;50266;57.446;26.936;2023-04-05T00:09:43;99750.86;;;-1.41;100.0
64025;BME280;50266;57.446;26.936;2023-04-05T00:10:43;99747.45;;;-1.38;100.0
64025;BME280;50266;57.446;26.936;2023-04-05T00:11:43;99745.48;;;-1.36;100.0
64025;BME280;50266;57.446;26.936;2023-04-05T00:12:43;99739.7;;;-1.39;100.0
64025;BME280;50266;57.446;26.936;2023-04-05T00:13:43;99739.07;;;-1.36;100.0
64025;BME280;50266;57.446;26.936;2023-04-05T00:14:43;99742.02;;;-1.37;100.0
64025;BME280;50266;57.446;26.936;2023-04-05T00:15:43;99736.25;;;-1.4;100.0
64025;BME280;50266;57.446;26.936;2023-04-05T00:16:43;99737.31;;;-1.39;100.0
64025;BME280;50266;57.446;26.936;2023-04-05T00:17:43;99733.95;;;-1.35;100.0
64025;BME280;50266;57.446;26.936;2023-04-05T00:18:44;99736.12;;;-1.35;100.0
64025;BME280;50266;57.446;26.936;2023-04-05T00:19:43;99733.12;;;-1.31;100.0
64025;BME280;50266;57.446;26.936;2023-04-05T00:20:43;99737.7;;;-1.31;100.0
64025;BME280;50266;57.446;26.936;2023-04-05T00:21:43;99743.62;;;-1.32;100.0
64025;BME280;50266;57.446;26.936;2023-04-05T00:22:43;99744.39;;;-1.32;100.0
64025;BME280;50266;57.446;26.936;2023-04-05T00:23:43;99747.59;;;-1.31;100.0
64025;BME280;50266;57.446;26.936;2023-04-05T00:24:43;99754.8;;;-1.34;100.0
64025;BME280;50266;57.446;26.936;2023-04-05T00:25:43;99751.16;;;-1.3;100.0
64025;BME280;50266;57.446;26.936;2023-04-05T00:26:43;99753.39;;;-1.35;100.0
64025;BME280;50266;57.446;26.936;2023-04-05T00:27:43;99756.94;;;-1.32;100.0
64025;BME280;50266;57.446;26.936;2023-04-05T00:28:43;99755.74;;;-1.32;100.0
64025;BME280;50266;57.446;26.936;2023-04-05T00:29:43;99753.73;;;-1.32;100.0
64025;BME280;50266;57.446;26.936;2023-04-05T00:30:43;99760.25;;;-1.32;100.0
64025;BME280;50266;57.446;26.936;2023-04-05T00:31:43;99759.69;;;-1.3;100.0
64025;BME280;50266;57.446;26.936;2023-04-05T00:32:43;99758.5;;;-1.31;100.0
64025;BME280;50266;57.446;26.936;2023-04-05T00:33:44;99757.48;;;-1.28;100.0
64025;BME280;50266;57.446;26.936;2023-04-05T00:34:43;99757.81;;;-1.33;100.0
64025;BME280;50266;57.446;26.936;2023-04-05T00:35:43;99759.83;;;-1.33;100.0
64025;BME280;50266;57.446;26.936;2023-04-05T00:36:43;99755.77;;;-1.3;100.0
64025;BME280;50266;57.446;26.936;2023-04-05T00:37:43;99756.88;;;-1.31;100.0
64025;BME280;50266;57.446;26.936;2023-04-05T00:38:44;99759.32;;;-1.36;100.0
64025;BME280;50266;57.446;26.936;2023-04-05T00:39:43;99759.39;;;-1.32;100.0
64025;BME280;50266;57.446;26.936;2023-04-05T00:40:43;99755.17;;;-1.3;100.0
64025;BME280;50266;57.446;26.936;2023-04-05T00:41:43;99753.29;;;-1.31;100.0
64025;BME280;50266;57.446;26.936;2023-04-05T00:42:43;99748.11;;;-1.3;100.0
64025;BME280;50266;57.446;26.936;2023-04-05T00:43:43;99748.09;;;-1.32;100.0
64025;BME280;50266;57.446;26.936;2023-04-05T00:44:43;99747.42;;;-1.31;100.0
64025;BME280;50266;57.446;26.936;2023-04-05T00:45:43;99743.16;;;-1.3;100.0
64025;BME280;50266;57.446;26.936;2023-04-05T00:46:44;99743.23;;;-1.34;100.0
64025;BME280;50266;57.446;26.936;2023-04-05T00:47:44;99746.53;;;-1.34;100.0
64025;BME280;50266;57.446;26.936;2023-04-05T00:48:44;99743.8;;;-1.33;100.0
64025;BME280;50266;57.446;26.936;2023-04-05T00:49:44;99735.19;;;-1.34;100.0
64025;BME280;50266;57.446;26.936;2023-04-05T00:50:44;99733.83;;;-1.34;100.0
64025;BME280;50266;57.446;26.936;2023-04-05T00:51:44;99732.92;;;-1.31;100.0
64025;BME280;50266;57.446;26.936;2023-04-05T00:52:44;99735.23;;;-1.29;100.0
64025;BME280;50266;57.446;26.936;2023-04-05T00:53:44;99730.77;;;-1.25;100.0
64025;BME280;50266;57.446;26.936;2023-04-05T00:54:44;99733.92;;;-1.25;100.0
64025;BME280;50266;57.446;26.936;2023-04-05T00:55:45;99744.05;;;-1.27;100.0
64025;BME280;50266;57.446;26.936;2023-04-05T00:56:44;99745.55;;;-1.29;100.0
64025;BME280;50266;57.446;26.936;2023-04-05T00:57:44;99751.05;;;-1.26;100.0
64025;BME280;50266;57.446;26.936;2023-04-05T00:58:44;99748.52;;;-1.23;100.0
64025;BME280;50266;57.446;26.936;2023-04-05T00:59:44;99749.36;;;-1.21;100.0
64025;BME280;50266;57.446;26.936;2023-04-05T01:00:55;99752.2;;;-1.18;100.0
64025;BME280;50266;57.446;26.936;2023-04-05T01:01:49;99747.54;;;-1.24;100.0
64025;BME280;50266;57.446;26.936;2023-04-05T01:02:54;99738.08;;;-1.28;100.0
64025;BME280;50266;57.446;26.936;2023-04-05T01:03:52;99738.2;;;-1.32;100.0
64025;BME280;50266;57.446;26.936;2023-04-05T01:04:54;99729.89;;;-1.28;100.0
64025;BME280;50266;57.446;26.936;2023-04-05T01:05:54;99730.5;;;-1.29;100.0
64025;BME280;50266;57.446;26.936;2023-04-05T01:08:05;99726.44;;;-1.3;100.0
64025;BME280;50266;57.446;26.936;2023-04-05T01:10:06;99732.39;;;-1.33;100.0
64025;BME280;50266;57.446;26.936;2023-04-05T01:11:06;99733.41;;;-1.31;100.0
64025;BME280;50266;57.446;26.936;2023-04-05T01:12:06;99737.88;;;-1.29;100.0
64025;BME280;50266;57.446;26.936;2023-04-05T01:13:06;99736.36;;;-1.25;100.0
64025;BME280;50266;57.446;26.936;2023-04-05T01:14:06;99741.46;;;-1.28;100.0
64025;BME280;50266;57.446;26.936;2023-04-05T01:15:06;99739.62;;;-1.29;100.0
64025;BME280;50266;57.446;26.936;2023-04-05T01:16:06;99740.17;;;-1.3;100.0
64025;BME280;50266;57.446;26.936;2023-04-05T01:17:06;99743.27;;;-1.29;100.0
64025;BME280;50266;57.446;26.936;2023-04-05T01:18:06;99743.39;;;-1.34;100.0
64025;BME280;50266;57.446;26.936;2023-04-05T01:19:06;99745.23;;;-1.3;100.0
64025;BME280;50266;57.446;26.936;2023-04-05T01:20:07;99751.91;;;-1.3;100.0
64025;BME280;50266;57.446;26.936;2023-04-05T01:24:37;99746.59;;;-1.3;100.0
64025;BME280;50266;57.446;26.936;2023-04-05T01:26:28;99742.27;;;-1.28;100.0
64025;BME280;50266;57.446;26.936;2023-04-05T01:27:31;99746.7;;;-1.3;100.0
64025;BME280;50266;57.446;26.936;2023-04-05T01:28:34;99748.39;;;-1.31;100.0
64025;BME280;50266;57.446;26.936;2023-04-05T01:30:36;99746.95;;;-1.32;100.0
64025;BME280;50266;57.446;26.936;2023-04-05T01:31:40;99750.27;;;-1.32;100.0
64025;BME280;50266;57.446;26.936;2023-04-05T01:33:48;99747.92;;;-1.32;100.0
64025;BME280;50266;57.446;26.936;2023-04-05T01:34:47;99747.67;;;-1.34;100.0
64025;BME280;50266;57.446;26.936;2023-04-05T01:36:05;99746.19;;;-1.32;100.0
64025;BME280;50266;57.446;26.936;2023-04-05T01:36:51;99744.83;;;-1.32;100.0
64025;BME280;50266;57.446;26.936;2023-04-05T01:37:52;99744.69;;;-1.34;100.0
64025;BME280;50266;57.446;26.936;2023-04-05T01:38:50;99743.2;;;-1.33;100.0
64025;BME280;50266;57.446;26.936;2023-04-05T01:39:50;99742.94;;;-1.33;100.0
64025;BME280;50266;57.446;26.936;2023-04-05T01:40:51;99748.68;;;-1.32;100.0
64025;BME280;50266;57.446;26.936;2023-04-05T01:41:50;99744.75;;;-1.35;100.0
64025;BME280;50266;57.446;26.936;2023-04-05T01:42:50;99748.62;;;-1.35;100.0
64025;BME280;50266;57.446;26.936;2023-04-05T01:43:51;99752.17;;;-1.33;100.0
64025;BME280;50266;57.446;26.936;2023-04-05T01:44:53;99755.8;;;-1.32;100.0
64025;BME280;50266;57.446;26.936;2023-04-05T01:45:51;99753.72;;;-1.35;100.0
64025;BME280;50266;57.446;26.936;2023-04-05T01:46:51;99761.25;;;-1.34;100.0
64025;BME280;50266;57.446;26.936;2023-04-05T01:47:51;99756.36;;;-1.3;100.0
64025;BME280;50266;57.446;26.936;2023-04-05T01:48:51;99757.47;;;-1.31;100.0
64025;BME280;50266;57.446;26.936;2023-04-05T01:49:51;99761.08;;;-1.29;100.0
64025;BME280;50266;57.446;26.936;2023-04-05T01:50:51;99754.53;;;-1.31;100.0
64025;BME280;50266;57.446;26.936;2023-04-05T01:51:51;99750.93;;;-1.3;100.0
64025;BME280;50266;57.446;26.936;2023-04-05T01:52:51;99753.86;;;-1.34;100.0
64025;BME280;50266;57.446;26.936;2023-04-05T01:53:51;99751.48;;;-1.31;100.0
64025;BME280;50266;57.446;26.936;2023-04-05T01:54:51;99749.45;;;-1.32;100.0
64025;BME280;50266;57.446;26.936;2023-04-05T01:55:51;99753.41;;;-1.32;100.0
64025;BME280;50266;57.446;26.936;2023-04-05T01:56:51;99752.22;;;-1.32;100.0
64025;BME280;50266;57.446;26.936;2023-04-05T01:57:52;99756.84;;;-1.33;100.0
64025;BME280;50266;57.446;26.936;2023-04-05T01:58:51;99755.81;;;-1.33;100.0
64025;BME280;50266;57.446;26.936;2023-04-05T01:59:51;99755.82;;;-1.34;100.0
64025;BME280;50266;57.446;26.936;2023-04-05T02:00:54;99754.36;;;-1.35;100.0
64025;BME280;50266;57.446;26.936;2023-04-05T02:01:52;99754.81;;;-1.35;100.0
64025;BME280;50266;57.446;26.936;2023-04-05T02:02:51;99746.81;;;-1.3;100.0
64025;BME280;50266;57.446;26.936;2023-04-05T02:03:51;99749.52;;;-1.33;100.0
64025;BME280;50266;57.446;26.936;2023-04-05T02:04:51;99750.7;;;-1.33;100.0
64025;BME280;50266;57.446;26.936;2023-04-05T02:05:51;99756.37;;;-1.34;100.0
64025;BME280;50266;57.446;26.936;2023-04-05T02:06:51;99752.25;;;-1.31;100.0
64025;BME280;50266;57.446;26.936;2023-04-05T02:07:51;99753.95;;;-1.32;100.0
64025;BME280;50266;57.446;26.936;2023-04-05T02:08:51;99755.18;;;-1.35;100.0
64025;BME280;50266;57.446;26.936;2023-04-05T02:09:51;99751.75;;;-1.34;100.0
64025;BME280;50266;57.446;26.936;2023-04-05T02:10:52;99749.41;;;-1.38;100.0
64025;BME280;50266;57.446;26.936;2023-04-05T02:11:51;99748.68;;;-1.32;100.0
64025;BME280;50266;57.446;26.936;2023-04-05T02:12:51;99750.75;;;-1.37;100.0
64025;BME280;50266;57.446;26.936;2023-04-05T02:13:51;99750.38;;;-1.36;100.0
64025;BME280;50266;57.446;26.936;2023-04-05T02:14:51;99751.47;;;-1.33;100.0
64025;BME280;50266;57.446;26.936;2023-04-05T02:15:51;99749.56;;;-1.33;100.0
64025;BME280;50266;57.446;26.936;2023-04-05T02:16:51;99755.91;;;-1.36;100.0
64025;BME280;50266;57.446;26.936;2023-04-05T02:17:51;99756.38;;;-1.35;100.0
64025;BME280;50266;57.446;26.936;2023-04-05T02:18:53;99756.96;;;-1.34;100.0
64025;BME280;50266;57.446;26.936;2023-04-05T02:19:51;99763.23;;;-1.32;100.0
64025;BME280;50266;57.446;26.936;2023-04-05T02:20:51;99756.76;;;-1.31;100.0
64025;BME280;50266;57.446;26.936;2023-04-05T02:21:51;99759.69;;;-1.34;100.0
64025;BME280;50266;57.446;26.936;2023-04-05T02:22:51;99758.12;;;-1.31;100.0
64025;BME280;50266;57.446;26.936;2023-04-05T02:23:52;99759.62;;;-1.34;100.0
64025;BME280;50266;57.446;26.936;2023-04-05T02:24:51;99760.06;;;-1.34;100.0
64025;BME280;50266;57.446;26.936;2023-04-05T02:25:51;99757.59;;;-1.36;100.0
64025;BME280;50266;57.446;26.936;2023-04-05T02:26:51;99756.72;;;-1.36;100.0
64025;BME280;50266;57.446;26.936;2023-04-05T02:27:51;99757.09;;;-1.35;100.0
64025;BME280;50266;57.446;26.936;2023-04-05T02:28:51;99755.11;;;-1.37;100.0
64025;BME280;50266;57.446;26.936;2023-04-05T02:29:51;99759.57;;;-1.34;100.0
64025;BME280;50266;57.446;26.936;2023-04-05T02:30:52;99753.23;;;-1.35;100.0
64025;BME280;50266;57.446;26.936;2023-04-05T02:31:52;99750.12;;;-1.34;100.0
64025;BME280;50266;57.446;26.936;2023-04-05T02:32:52;99748.27;;;-1.34;100.0
64025;BME280;50266;57.446;26.936;2023-04-05T02:33:52;99747.23;;;-1.33;100.0
64025;BME280;50266;57.446;26.936;2023-04-05T02:34:52;99744.67;;;-1.33;100.0
64025;BME280;50266;57.446;26.936;2023-04-05T02:35:52;99748.24;;;-1.36;100.0
64025;BME280;50266;57.446;26.936;2023-04-05T02:36:52;99743.19;;;-1.36;100.0
64025;BME280;50266;57.446;26.936;2023-04-05T02:37:52;99746.28;;;-1.36;100.0
64025;BME280;50266;57.446;26.936;2023-04-05T02:38:52;99746.05;;;-1.35;100.0
64025;BME280;50266;57.446;26.936;2023-04-05T02:39:52;99744.99;;;-1.36;100.0
64025;BME280;50266;57.446;26.936;2023-04-05T02:40:52;99741.91;;;-1.37;100.0
64025;BME280;50266;57.446;26.936;2023-04-05T02:41:52;99744.5;;;-1.32;100.0
64025;BME280;50266;57.446;26.936;2023-04-05T02:42:52;99743.42;;;-1.37;100.0
64025;BME280;50266;57.446;26.936;2023-04-05T02:43:52;99743.61;;;-1.35;100.0
64025;BME280;50266;57.446;26.936;2023-04-05T02:44:52;99742.73;;;-1.34;100.0
64025;BME280;50266;57.446;26.936;2023-04-05T02:45:52;99741.48;;;-1.34;100.0
64025;BME280;50266;57.446;26.936;2023-04-05T02:46:52;99742.71;;;-1.36;100.0
64025;BME280;50266;57.446;26.936;2023-04-05T02:47:52;99746.05;;;-1.34;100.0
64025;BME280;50266;57.446;26.936;2023-04-05T02:48:52;99742.52;;;-1.34;100.0
64025;BME280;50266;57.446;26.936;2023-04-05T02:49:52;99743.88;;;-1.34;100.0
64025;BME280;50266;57.446;26.936;2023-04-05T02:50:52;99741.66;;;-1.31;100.0
64025;BME280;50266;57.446;26.936;2023-04-05T02:51:52;99739.23;;;-1.33;100.0
64025;BME280;50266;57.446;26.936;2023-04-05T02:52:52;99738.03;;;-1.32;100.0
64025;BME280;50266;57.446;26.936;2023-04-05T02:53:52;99738.91;;;-1.32;100.0
64025;BME280;50266;57.446;26.936;2023-04-05T02:54:52;99740.59;;;-1.32;100.0
64025;BME280;50266;57.446;26.936;2023-04-05T02:55:52;99737.66;;;-1.33;100.0
64025;BME280;50266;57.446;26.936;2023-04-05T02:56:52;99741.2;;;-1.33;100.0
64025;BME280;50266;57.446;26.936;2023-04-05T02:57:52;99744.49;;;-1.31;100.0
64025;BME280;50266;57.446;26.936;2023-04-05T02:58:52;99744.48;;;-1.31;100.0
64025;BME280;50266;57.446;26.936;2023-04-05T02:59:52;99741.38;;;-1.3;100.0
64025;BME280;50266;57.446;26.936;2023-04-05T03:00:52;99739.29;;;-1.29;100.0
64025;BME280;50266;57.446;26.936;2023-04-05T03:01:52;99744.12;;;-1.32;100.0
64025;BME280;50266;57.446;26.936;2023-04-05T03:02:52;99740.75;;;-1.32;100.0
64025;BME280;50266;57.446;26.936;2023-04-05T03:03:52;99738.25;;;-1.32;100.0
64025;BME280;50266;57.446;26.936;2023-04-05T03:04:52;99742.25;;;-1.3;100.0
64025;BME280;50266;57.446;26.936;2023-04-05T03:05:58;99746.47;;;-1.29;100.0
64025;BME280;50266;57.446;26.936;2023-04-05T03:06:55;99738.44;;;-1.33;100.0
64025;BME280;50266;57.446;26.936;2023-04-05T03:07:55;99742.81;;;-1.28;100.0
64025;BME280;50266;57.446;26.936;2023-04-05T03:08:55;99750.66;;;-1.29;100.0
64025;BME280;50266;57.446;26.936;2023-04-05T03:09:55;99748.53;;;-1.33;100.0
64025;BME280;50266;57.446;26.936;2023-04-05T03:10:55;99753.09;;;-1.33;100.0
64025;BME280;50266;57.446;26.936;2023-04-05T03:11:55;99750.46;;;-1.31;100.0
64025;BME280;50266;57.446;26.936;2023-04-05T03:12:55;99746.26;;;-1.33;100.0
64025;BME280;50266;57.446;26.936;2023-04-05T03:13:55;99745.16;;;-1.32;100.0
64025;BME280;50266;57.446;26.936;2023-04-05T03:14:55;99743.54;;;-1.29;100.0
64025;BME280;50266;57.446;26.936;2023-04-05T03:15:55;99747.59;;;-1.28;100.0
64025;BME280;50266;57.446;26.936;2023-04-05T03:16:55;99745.52;;;-1.31;100.0
64025;BME280;50266;57.446;26.936;2023-04-05T03:17:55;99750.16;;;-1.29;100.0
64025;BME280;50266;57.446;26.936;2023-04-05T03:18:55;99747.31;;;-1.27;100.0
64025;BME280;50266;57.446;26.936;2023-04-05T03:19:55;99747.78;;;-1.29;100.0
64025;BME280;50266;57.446;26.936;2023-04-05T03:20:55;99747.27;;;-1.28;100.0
64025;BME280;50266;57.446;26.936;2023-04-05T03:21:55;99748.19;;;-1.28;100.0
64025;BME280;50266;57.446;26.936;2023-04-05T03:22:55;99746.61;;;-1.27;100.0
64025;BME280;50266;57.446;26.936;2023-04-05T03:23:55;99745.48;;;-1.29;100.0
64025;BME280;50266;57.446;26.936;2023-04-05T03:24:55;99747.11;;;-1.29;100.0
64025;BME280;50266;57.446;26.936;2023-04-05T03:26:01;99746.1;;;-1.3;100.0
64025;BME280;50266;57.446;26.936;2023-04-05T03:27:00;99747.23;;;-1.29;100.0
64025;BME280;50266;57.446;26.936;2023-04-05T03:27:58;99746.52;;;-1.29;100.0
64025;BME280;50266;57.446;26.936;2023-04-05T03:28:58;99747.91;;;-1.31;100.0
64025;BME280;50266;57.446;26.936;2023-04-05T03:29:58;99750.06;;;-1.29;100.0
64025;BME280;50266;57.446;26.936;2023-04-05T03:30:58;99754.28;;;-1.29;100.0
64025;BME280;50266;57.446;26.936;2023-04-05T03:31:58;99750.25;;;-1.27;100.0
64025;BME280;50266;57.446;26.936;2023-04-05T03:32:58;99754.66;;;-1.28;100.0
64025;BME280;50266;57.446;26.936;2023-04-05T03:33:58;99751.02;;;-1.28;100.0
64025;BME280;50266;57.446;26.936;2023-04-05T03:34:58;99753.47;;;-1.29;100.0
64025;BME280;50266;57.446;26.936;2023-04-05T03:35:58;99749.98;;;-1.28;100.0
64025;BME280;50266;57.446;26.936;2023-04-05T03:36:58;99751.22;;;-1.27;100.0
64025;BME280;50266;57.446;26.936;2023-04-05T03:37:58;99748.88;;;-1.26;100.0
64025;BME280;50266;57.446;26.936;2023-04-05T03:38:58;99746.08;;;-1.28;100.0
64025;BME280;50266;57.446;26.936;2023-04-05T03:39:58;99747.72;;;-1.29;100.0
64025;BME280;50266;57.446;26.936;2023-04-05T03:40:58;99745.55;;;-1.29;100.0
64025;BME280;50266;57.446;26.936;2023-04-05T03:41:58;99744.08;;;-1.25;100.0
64025;BME280;50266;57.446;26.936;2023-04-05T03:42:58;99745.33;;;-1.25;100.0
64025;BME280;50266;57.446;26.936;2023-04-05T03:43:58;99748.59;;;-1.26;100.0
64025;BME280;50266;57.446;26.936;2023-04-05T03:44:58;99742.49;;;-1.23;100.0
64025;BME280;50266;57.446;26.936;2023-04-05T03:45:58;99745.16;;;-1.23;100.0
64025;BME280;50266;57.446;26.936;2023-04-05T03:46:58;99746.7;;;-1.26;100.0
64025;BME280;50266;57.446;26.936;2023-04-05T03:47:58;99746.89;;;-1.24;100.0
64025;BME280;50266;57.446;26.936;2023-04-05T03:48:58;99749.08;;;-1.25;100.0
64025;BME280;50266;57.446;26.936;2023-04-05T03:49:58;99748.34;;;-1.21;100.0
64025;BME280;50266;57.446;26.936;2023-04-05T03:50:58;99749.66;;;-1.24;100.0
64025;BME280;50266;57.446;26.936;2023-04-05T03:51:58;99750.95;;;-1.22;100.0
64025;BME280;50266;57.446;26.936;2023-04-05T03:52:58;99748.73;;;-1.22;100.0
64025;BME280;50266;57.446;26.936;2023-04-05T03:53:58;99743.59;;;-1.26;100.0
64025;BME280;50266;57.446;26.936;2023-04-05T03:54:58;99748.72;;;-1.22;100.0
64025;BME280;50266;57.446;26.936;2023-04-05T03:55:58;99749.7;;;-1.22;100.0
64025;BME280;50266;57.446;26.936;2023-04-05T03:56:58;99747.69;;;-1.21;100.0
64025;BME280;50266;57.446;26.936;2023-04-05T03:57:58;99749.08;;;-1.19;100.0
64025;BME280;50266;57.446;26.936;2023-04-05T03:58:58;99756.48;;;-1.17;100.0
64025;BME280;50266;57.446;26.936;2023-04-05T03:59:58;99751.14;;;-1.2;100.0
64025;BME280;50266;57.446;26.936;2023-04-05T04:00:58;99757.95;;;-1.17;100.0
64025;BME280;50266;57.446;26.936;2023-04-05T04:01:58;99752.88;;;-1.15;100.0
64025;BME280;50266;57.446;26.936;2023-04-05T04:02:58;99756.14;;;-1.16;100.0
64025;BME280;50266;57.446;26.936;2023-04-05T04:03:58;99755.44;;;-1.16;100.0
64025;BME280;50266;57.446;26.936;2023-04-05T04:04:58;99757.34;;;-1.13;100.0
64025;BME280;50266;57.446;26.936;2023-04-05T04:05:58;99758.16;;;-1.12;100.0
64025;BME280;50266;57.446;26.936;2023-04-05T04:06:58;99759.55;;;-1.11;100.0
64025;BME280;50266;57.446;26.936;2023-04-05T04:07:58;99761.67;;;-1.11;100.0
64025;BME280;50266;57.446;26.936;2023-04-05T04:08:58;99761.98;;;-1.1;100.0
64025;BME280;50266;57.446;26.936;2023-04-05T04:09:58;99763.95;;;-1.08;100.0
64025;BME280;50266;57.446;26.936;2023-04-05T04:10:58;99765.38;;;-1.04;100.0
64025;BME280;50266;57.446;26.936;2023-04-05T04:11:58;99767.91;;;-1.07;100.0
64025;BME280;50266;57.446;26.936;2023-04-05T04:12:58;99768.08;;;-1.07;100.0
64025;BME280;50266;57.446;26.936;2023-04-05T04:13:58;99768.45;;;-1.02;100.0
64025;BME280;50266;57.446;26.936;2023-04-05T04:14:58;99770.66;;;-1.05;100.0
64025;BME280;50266;57.446;26.936;2023-04-05T04:15:58;99771.31;;;-1.06;100.0
64025;BME280;50266;57.446;26.936;2023-04-05T04:16:58;99770.47;;;-1.03;100.0
64025;BME280;50266;57.446;26.936;2023-04-05T04:17:58;99769.12;;;-1.07;100.0
64025;BME280;50266;57.446;26.936;2023-04-05T04:18:58;99769.56;;;-1.04;100.0
64025;BME280;50266;57.446;26.936;2023-04-05T04:19:58;99762.6;;;-1.02;100.0
64025;BME280;50266;57.446;26.936;2023-04-05T04:21:00;99770.05;;;-0.99;100.0
64025;BME280;50266;57.446;26.936;2023-04-05T04:21:58;99770.02;;;-1.01;100.0
64025;BME280;50266;57.446;26.936;2023-04-05T04:22:58;99767.41;;;-1.0;100.0
64025;BME280;50266;57.446;26.936;2023-04-05T04:23:58;99767.53;;;-1.01;100.0
64025;BME280;50266;57.446;26.936;2023-04-05T04:24:58;99769.7;;;-1.01;100.0
64025;BME280;50266;57.446;26.936;2023-04-05T04:25:59;99768.88;;;-1.06;100.0
64025;BME280;50266;57.446;26.936;2023-04-05T04:26:58;99771.48;;;-1.06;100.0
64025;BME280;50266;57.446;26.936;2023-04-05T04:27:58;99772.78;;;-1.06;100.0
64025;BME280;50266;57.446;26.936;2023-04-05T04:28:58;99772.38;;;-1.07;100.0
64025;BME280;50266;57.446;26.936;2023-04-05T04:29:58;99778.33;;;-1.0;100.0
64025;BME280;50266;57.446;26.936;2023-04-05T04:30:59;99776.83;;;-0.98;100.0
64025;BME280;50266;57.446;26.936;2023-04-05T04:31:58;99780.3;;;-0.97;100.0
64025;BME280;50266;57.446;26.936;2023-04-05T04:32:59;99779.91;;;-0.97;100.0
64025;BME280;50266;57.446;26.936;2023-04-05T04:33:59;99775.47;;;-0.98;100.0
64025;BME280;50266;57.446;26.936;2023-04-05T04:34:59;99779.83;;;-0.99;100.0
64025;BME280;50266;57.446;26.936;2023-04-05T04:35:59;99776.27;;;-0.97;100.0
64025;BME280;50266;57.446;26.936;2023-04-05T04:36:59;99777.58;;;-0.97;100.0
64025;BME280;50266;57.446;26.936;2023-04-05T04:37:59;99779.45;;;-0.95;100.0
64025;BME280;50266;57.446;26.936;2023-04-05T04:38:59;99776.61;;;-1.02;100.0
64025;BME280;50266;57.446;26.936;2023-04-05T04:39:59;99784.84;;;-0.99;100.0
64025;BME280;50266;57.446;26.936;2023-04-05T04:40:59;99784.76;;;-0.94;100.0
64025;BME280;50266;57.446;26.936;2023-04-05T04:41:59;99782.52;;;-0.97;100.0
64025;BME280;50266;57.446;26.936;2023-04-05T04:42:59;99782.02;;;-0.93;100.0
64025;BME280;50266;57.446;26.936;2023-04-05T04:43:59;99783.83;;;-0.97;100.0
64025;BME280;50266;57.446;26.936;2023-04-05T04:44:59;99786.91;;;-0.95;100.0
64025;BME280;50266;57.446;26.936;2023-04-05T04:45:59;99780.98;;;-0.96;100.0
64025;BME280;50266;57.446;26.936;2023-04-05T04:46:59;99782.16;;;-0.98;100.0
64025;BME280;50266;57.446;26.936;2023-04-05T04:47:59;99786.31;;;-1.0;100.0
64025;BME280;50266;57.446;26.936;2023-04-05T04:48:59;99787.11;;;-0.95;100.0
64025;BME280;50266;57.446;26.936;2023-04-05T04:49:59;99789.98;;;-0.94;100.0
64025;BME280;50266;57.446;26.936;2023-04-05T04:51:01;99791.07;;;-0.94;100.0
64025;BME280;50266;57.446;26.936;2023-04-05T04:51:59;99788.75;;;-0.91;100.0
64025;BME280;50266;57.446;26.936;2023-04-05T04:52:59;99792.86;;;-0.9;100.0
64025;BME280;50266;57.446;26.936;2023-04-05T04:53:59;99792.03;;;-0.86;100.0
64025;BME280;50266;57.446;26.936;2023-04-05T04:54:59;99794.6;;;-0.91;100.0
64025;BME280;50266;57.446;26.936;2023-04-05T04:55:59;99796.75;;;-0.89;100.0
64025;BME280;50266;57.446;26.936;2023-04-05T04:56:59;99790.53;;;-0.83;100.0
64025;BME280;50266;57.446;26.936;2023-04-05T04:57:59;99793.8;;;-0.83;100.0
64025;BME280;50266;57.446;26.936;2023-04-05T04:58:59;99798.0;;;-0.88;100.0
64025;BME280;50266;57.446;26.936;2023-04-05T04:59:59;99796.0;;;-0.9;100.0
64025;BME280;50266;57.446;26.936;2023-04-05T05:00:59;99793.34;;;-0.86;100.0
64025;BME280;50266;57.446;26.936;2023-04-05T05:01:59;99795.44;;;-0.84;100.0
64025;BME280;50266;57.446;26.936;2023-04-05T05:02:59;99794.14;;;-0.85;100.0
64025;BME280;50266;57.446;26.936;2023-04-05T05:03:59;99796.58;;;-0.84;100.0
64025;BME280;50266;57.446;26.936;2023-04-05T05:04:59;99800.82;;;-0.84;100.0
64025;BME280;50266;57.446;26.936;2023-04-05T05:05:59;99802.41;;;-0.8;100.0
64025;BME280;50266;57.446;26.936;2023-04-05T05:06:59;99797.58;;;-0.81;100.0
64025;BME280;50266;57.446;26.936;2023-04-05T05:07:59;99795.12;;;-0.8;100.0
64025;BME280;50266;57.446;26.936;2023-04-05T05:08:59;99796.67;;;-0.82;100.0
64025;BME280;50266;57.446;26.936;2023-04-05T05:09:59;99797.27;;;-0.87;100.0
64025;BME280;50266;57.446;26.936;2023-04-05T05:10:59;99796.98;;;-0.86;100.0
64025;BME280;50266;57.446;26.936;2023-04-05T05:11:59;99797.31;;;-0.86;100.0
64025;BME280;50266;57.446;26.936;2023-04-05T05:12:59;99798.55;;;-0.77;100.0
64025;BME280;50266;57.446;26.936;2023-04-05T05:13:59;99794.95;;;-0.79;100.0
64025;BME280;50266;57.446;26.936;2023-04-05T05:14:59;99799.84;;;-0.84;100.0
64025;BME280;50266;57.446;26.936;2023-04-05T05:15:59;99800.75;;;-0.82;100.0
64025;BME280;50266;57.446;26.936;2023-04-05T05:16:59;99802.17;;;-0.79;100.0
64025;BME280;50266;57.446;26.936;2023-04-05T05:17:59;99801.38;;;-0.77;100.0
64025;BME280;50266;57.446;26.936;2023-04-05T05:18:59;99800.64;;;-0.78;100.0
64025;BME280;50266;57.446;26.936;2023-04-05T05:19:59;99802.35;;;-0.76;100.0
64025;BME280;50266;57.446;26.936;2023-04-05T05:20:59;99804.36;;;-0.72;100.0
64025;BME280;50266;57.446;26.936;2023-04-05T05:21:59;99802.84;;;-0.76;100.0
64025;BME280;50266;57.446;26.936;2023-04-05T05:22:59;99804.49;;;-0.78;100.0
64025;BME280;50266;57.446;26.936;2023-04-05T05:23:59;99798.6;;;-0.76;100.0